createdAt,value
2022-08-01T00:01:01.964Z,84.13
2022-08-01T00:03:29.860Z,85.04
2022-08-01T00:05:57.789Z,85.25
2022-08-01T00:08:25.704Z,86.21
2022-08-01T00:10:53.634Z,86.39
2022-08-01T00:13:21.489Z,87.30
2022-08-01T00:15:53.832Z,87.89
2022-08-01T00:18:23.809Z,88.78
2022-08-01T00:20:51.735Z,89.72
2022-08-01T00:23:19.637Z,89.95
2022-08-01T00:25:47.528Z,90.25
2022-08-01T00:28:15.535Z,89.93
2022-08-01T00:30:43.694Z,90.06
2022-08-01T00:33:11.682Z,90.06
2022-08-01T00:35:41.113Z,90.08
2022-08-01T00:38:09.016Z,89.63
2022-08-01T00:40:36.902Z,89.81
2022-08-01T00:43:04.991Z,89.68
2022-08-01T00:45:32.879Z,89.21
2022-08-01T00:48:00.767Z,89.57
2022-08-01T00:50:29.088Z,88.61
2022-08-01T00:53:00.820Z,88.96
2022-08-01T00:55:30.019Z,90.27
2022-08-01T00:58:03.407Z,90.01
2022-08-01T01:00:53.258Z,89.90
2022-08-01T01:03:29.371Z,89.63
2022-08-01T01:06:16.901Z,89.02
2022-08-01T01:08:56.383Z,90.61
2022-08-01T01:11:30.957Z,89.84
2022-08-01T01:14:06.527Z,90.50
2022-08-01T01:16:36.035Z,90.83
2022-08-01T01:19:06.478Z,90.62
2022-08-01T01:21:49.858Z,90.42
2022-08-01T01:24:30.185Z,90.81
2022-08-01T01:27:08.604Z,91.29
2022-08-01T01:29:59.593Z,90.47
2022-08-01T01:32:35.435Z,90.04
2022-08-01T01:35:08.459Z,89.73
2022-08-01T01:37:39.895Z,89.51
2022-08-01T01:40:11.798Z,89.87
2022-08-01T01:42:42.020Z,89.59
2022-08-01T01:45:12.407Z,88.95
2022-08-01T01:47:42.082Z,89.63
2022-08-01T01:50:13.460Z,88.46
2022-08-01T01:52:45.431Z,88.61
2022-08-01T01:55:15.565Z,88.96
2022-08-01T01:57:44.882Z,89.12
2022-08-01T02:00:16.362Z,89.19
2022-08-01T02:02:45.470Z,88.93
2022-08-01T02:05:15.375Z,88.38
2022-08-01T02:07:44.776Z,87.12
2022-08-01T02:10:15.054Z,87.84
2022-08-01T02:12:46.631Z,87.17
2022-08-01T02:15:17.785Z,88.15
2022-08-01T02:17:49.631Z,88.25
2022-08-01T02:20:18.550Z,88.22
2022-08-01T02:22:52.240Z,89.16
2022-08-01T02:25:24.735Z,89.35
2022-08-01T02:27:59.033Z,89.57
2022-08-01T02:30:32.212Z,90.66
2022-08-01T02:33:03.998Z,90.60
2022-08-01T02:36:31.073Z,89.76
2022-08-01T02:38:29.454Z,89.64
2022-08-01T02:41:02.009Z,88.66
2022-08-01T02:43:32.294Z,89.61
2022-08-01T02:46:04.721Z,90.47
2022-08-01T02:48:37.573Z,89.73
2022-08-01T02:51:08.368Z,89.53
2022-08-01T02:53:44.474Z,88.15
2022-08-01T02:56:15.616Z,88.75
2022-08-01T02:58:45.837Z,88.10
2022-08-01T03:01:17.205Z,88.35
2022-08-01T03:03:48.486Z,88.51
2022-08-01T03:06:17.799Z,89.97
2022-08-01T03:08:47.779Z,89.88
2022-08-01T03:11:16.209Z,89.02
2022-08-01T03:13:46.753Z,89.36
2022-08-01T03:16:18.220Z,90.71
2022-08-01T03:18:47.356Z,91.43
2022-08-01T03:21:16.361Z,92.31
2022-08-01T03:23:48.217Z,92.56
2022-08-01T03:26:17.668Z,92.16
2022-08-01T03:28:48.292Z,92.48
2022-08-01T03:31:18.452Z,92.21
2022-08-01T03:33:46.369Z,91.62
2022-08-01T03:36:17.560Z,91.14
2022-08-01T03:38:47.584Z,92.78
2022-08-01T03:41:22.093Z,93.57
2022-08-01T03:43:57.144Z,94.38
2022-08-01T03:46:37.593Z,93.50
2022-08-01T03:49:11.823Z,92.76
2022-08-01T03:51:40.646Z,92.72
2022-08-01T03:54:11.505Z,93.04
2022-08-01T03:56:40.512Z,92.83
2022-08-01T03:59:08.660Z,94.28
2022-08-01T04:01:38.892Z,93.61
2022-08-01T04:04:07.204Z,92.63
2022-08-01T04:06:35.072Z,93.02
2022-08-01T04:09:02.964Z,92.66
2022-08-01T04:11:31.229Z,92.97
2022-08-01T04:13:59.273Z,92.27
2022-08-01T04:16:27.794Z,91.46
2022-08-01T04:18:57.198Z,89.87
2022-08-01T04:21:28.823Z,89.59
2022-08-01T04:24:00.388Z,89.68
2022-08-01T04:26:30.569Z,89.26
2022-08-01T04:28:59.127Z,88.17
2022-08-01T04:31:30.039Z,88.82
2022-08-01T04:34:04.804Z,87.75
2022-08-01T04:36:35.063Z,87.00
2022-08-01T04:39:05.638Z,87.82
2022-08-01T04:41:34.682Z,86.62
2022-08-01T04:44:03.680Z,86.64
2022-08-01T04:46:32.007Z,86.21
2022-08-01T04:49:02.008Z,85.06
2022-08-01T04:51:29.905Z,83.57
2022-08-01T04:53:58.830Z,80.56
2022-08-01T04:56:26.731Z,74.43
2022-08-01T04:59:08.788Z,71.63
2022-08-01T05:01:36.867Z,71.67
2022-08-01T05:04:07.306Z,71.22
2022-08-01T05:06:35.184Z,69.86
2022-08-01T05:09:03.045Z,70.51
2022-08-01T05:11:31.770Z,69.44
2022-08-01T05:13:59.633Z,68.82
2022-08-01T05:16:27.799Z,67.56
2022-08-01T05:18:55.702Z,66.01
2022-08-01T05:21:24.948Z,65.73
2022-08-01T05:23:52.961Z,61.96
2022-08-01T05:26:22.044Z,59.11
2022-08-01T05:28:49.932Z,56.57
2022-08-01T05:31:17.832Z,54.53
2022-08-01T05:33:45.761Z,55.41
2022-08-01T05:36:13.632Z,53.83
2022-08-01T05:38:42.988Z,53.07
2022-08-01T05:41:10.943Z,53.20
2022-08-01T05:43:38.891Z,52.18
2022-08-01T05:46:06.980Z,52.94
2022-08-01T05:48:34.844Z,52.09
2022-08-01T05:51:02.724Z,50.93
2022-08-01T05:53:30.668Z,50.36
2022-08-01T05:55:59.916Z,50.52
2022-08-01T05:58:27.774Z,49.51
2022-08-01T06:00:55.840Z,48.28
2022-08-01T06:03:23.751Z,48.51
2022-08-01T06:05:53.223Z,48.87
2022-08-01T06:08:21.156Z,48.76
2022-08-01T06:10:49.391Z,48.56
2022-08-01T06:13:19.963Z,46.77
2022-08-01T06:15:48.163Z,48.10
2022-08-01T06:18:16.489Z,47.37
2022-08-01T06:20:44.693Z,46.91
2022-08-01T06:23:31.884Z,46.98
2022-08-01T06:26:00.681Z,46.84
2022-08-01T06:28:30.684Z,46.16
2022-08-01T06:30:59.590Z,47.36
2022-08-01T06:33:27.504Z,46.39
2022-08-01T06:35:55.440Z,46.72
2022-08-01T06:38:23.428Z,46.03
2022-08-01T06:40:51.797Z,45.16
2022-08-01T06:43:20.372Z,44.40
2022-08-01T06:45:50.792Z,44.46
2022-08-01T06:48:18.716Z,44.06
2022-08-01T06:50:46.716Z,42.55
2022-08-01T06:53:14.677Z,42.01
2022-08-01T06:55:42.573Z,42.69
2022-08-01T06:58:10.456Z,42.20
2022-08-01T07:00:38.419Z,43.24
2022-08-01T07:03:08.084Z,42.94
2022-08-01T07:05:35.975Z,42.38
2022-08-01T07:08:03.872Z,42.67
2022-08-01T07:10:31.898Z,42.80
2022-08-01T07:13:00.181Z,42.22
2022-08-01T07:15:28.360Z,42.39
2022-08-01T07:17:57.954Z,42.21
2022-08-01T07:20:27.212Z,41.89
2022-08-01T07:22:56.520Z,41.80
2022-08-01T07:25:24.688Z,41.83
2022-08-01T07:27:52.577Z,42.01
2022-08-01T07:30:20.461Z,42.14
2022-08-01T07:32:48.429Z,40.60
2022-08-01T07:35:16.334Z,41.83
2022-08-01T07:37:48.449Z,41.12
2022-08-01T07:40:18.749Z,41.12
2022-08-01T07:42:46.882Z,41.59
2022-08-01T07:45:15.432Z,41.77
2022-08-01T07:47:44.058Z,41.21
2022-08-01T07:50:13.617Z,41.21
2022-08-01T07:52:41.895Z,41.35
2022-08-01T07:55:12.284Z,40.43
2022-08-01T07:57:44.708Z,40.74
2022-08-01T08:00:14.018Z,40.94
2022-08-01T08:02:42.043Z,41.82
2022-08-01T08:05:10.463Z,41.89
2022-08-01T08:07:40.439Z,41.45
2022-08-01T08:10:09.169Z,41.90
2022-08-01T08:12:38.612Z,41.30
2022-08-01T08:15:07.888Z,41.28
2022-08-01T08:17:36.814Z,40.86
2022-08-01T08:20:09.227Z,40.69
2022-08-01T08:22:38.680Z,41.01
2022-08-01T08:25:08.400Z,39.73
2022-08-01T08:27:37.337Z,39.11
2022-08-01T08:30:09.427Z,39.07
2022-08-01T08:32:37.779Z,39.69
2022-08-01T08:35:07.100Z,38.52
2022-08-01T08:37:38.007Z,38.89
2022-08-01T08:40:12.241Z,37.82
2022-08-01T08:42:41.913Z,38.67
2022-08-01T08:45:12.525Z,38.56
2022-08-01T08:47:41.654Z,38.39
2022-08-01T08:50:09.999Z,38.21
2022-08-01T08:52:40.681Z,38.74
2022-08-01T08:55:10.789Z,37.93
2022-08-01T08:57:42.331Z,37.90
2022-08-01T09:00:13.681Z,37.21
2022-08-01T09:02:44.444Z,37.67
2022-08-01T09:05:18.929Z,36.22
2022-08-01T09:07:47.496Z,37.14
2022-08-01T09:10:15.400Z,37.11
2022-08-01T09:13:07.680Z,37.71
2022-08-01T09:15:47.760Z,37.18
2022-08-01T09:18:30.773Z,36.83
2022-08-01T09:21:19.177Z,36.18
2022-08-01T09:23:53.333Z,37.11
2022-08-01T09:26:23.406Z,37.52
2022-08-01T09:28:52.447Z,37.15
2022-08-01T09:31:21.779Z,36.36
2022-08-01T09:33:52.018Z,36.81
2022-08-01T09:36:20.672Z,36.42
2022-08-01T09:38:50.940Z,35.83
2022-08-01T09:41:19.757Z,34.76
2022-08-01T09:43:52.216Z,34.93
2022-08-01T09:46:23.641Z,33.75
2022-08-01T09:49:01.390Z,34.68
2022-08-01T09:52:00.068Z,34.21
2022-08-01T09:54:30.568Z,34.17
2022-08-01T09:57:10.234Z,35.34
2022-08-01T09:59:57.216Z,34.81
2022-08-01T10:02:34.111Z,35.91
2022-08-01T10:05:08.337Z,34.79
2022-08-01T10:07:43.862Z,35.08
2022-08-01T10:10:14.807Z,34.99
2022-08-01T10:12:45.292Z,36.40
2022-08-01T10:15:17.984Z,37.16
2022-08-01T10:17:54.705Z,37.49
2022-08-01T10:20:29.964Z,36.26
2022-08-01T10:23:02.191Z,36.29
2022-08-01T10:25:43.107Z,35.66
2022-08-01T10:28:23.786Z,35.21
2022-08-01T10:30:53.368Z,35.63
2022-08-01T10:33:52.699Z,35.04
2022-08-01T10:36:13.633Z,35.39
2022-08-01T10:38:42.356Z,34.26
2022-08-01T10:41:12.258Z,34.68
2022-08-01T10:43:41.401Z,35.88
2022-08-01T10:46:13.884Z,35.98
2022-08-01T10:48:49.396Z,35.60
2022-08-01T10:51:22.469Z,36.00
2022-08-01T10:54:12.407Z,34.84
2022-08-01T10:56:43.510Z,34.14
2022-08-01T10:59:12.018Z,33.52
2022-08-01T11:01:45.084Z,33.63
2022-08-01T11:04:17.657Z,34.86
2022-08-01T11:07:05.882Z,33.51
2022-08-01T11:09:49.515Z,34.81
2022-08-01T11:12:23.577Z,34.72
2022-08-01T11:15:35.655Z,34.33
2022-08-01T11:18:05.740Z,35.05
2022-08-01T11:20:42.044Z,35.18
2022-08-01T11:23:20.356Z,34.23
2022-08-01T11:26:13.943Z,33.50
2022-08-01T11:29:04.750Z,33.70
2022-08-01T11:31:37.180Z,34.15
2022-08-01T11:34:06.058Z,34.19
2022-08-01T11:39:23.373Z,34.32
2022-08-01T11:41:53.687Z,34.24
2022-08-01T11:44:34.516Z,33.29
2022-08-01T11:47:09.761Z,32.89
2022-08-01T11:50:00.632Z,33.14
2022-08-01T11:52:34.557Z,33.28
2022-08-01T11:55:10.110Z,33.48
2022-08-01T11:57:39.611Z,33.97
2022-08-01T12:00:15.388Z,33.29
2022-08-01T12:02:46.216Z,34.03
2022-08-01T12:05:17.564Z,33.16
2022-08-01T12:07:51.233Z,33.70
2022-08-01T12:10:20.611Z,35.47
2022-08-01T12:12:50.468Z,34.44
2022-08-01T12:15:19.933Z,34.40
2022-08-01T12:17:57.935Z,35.55
2022-08-01T12:20:31.403Z,35.56
2022-08-01T12:23:02.621Z,35.29
2022-08-01T12:25:31.198Z,35.04
2022-08-01T12:28:03.934Z,35.12
2022-08-01T12:30:36.218Z,34.64
2022-08-01T12:33:06.083Z,35.27
2022-08-01T12:35:34.810Z,35.74
2022-08-01T12:38:06.448Z,35.82
2022-08-01T12:40:36.138Z,36.57
2022-08-01T12:43:06.136Z,37.82
2022-08-01T12:45:37.509Z,37.71
2022-08-01T12:48:09.909Z,36.98
2022-08-01T12:50:40.352Z,37.09
2022-08-01T12:53:11.041Z,37.32
2022-08-01T12:55:59.504Z,38.25
2022-08-01T12:58:33.619Z,38.07
2022-08-01T13:01:06.549Z,37.70
2022-08-01T13:03:34.767Z,38.08
2022-08-01T13:06:02.990Z,37.19
2022-08-01T13:08:34.621Z,37.80
2022-08-01T13:11:05.792Z,38.17
2022-08-01T13:13:40.675Z,38.59
2022-08-01T13:16:15.470Z,38.99
2022-08-01T13:18:51.527Z,40.24
2022-08-01T13:21:21.208Z,39.58
2022-08-01T13:24:06.268Z,39.44
2022-08-01T13:26:41.790Z,39.92
2022-08-01T13:29:11.149Z,40.34
2022-08-01T13:31:40.956Z,39.68
2022-08-01T13:34:09.597Z,39.29
2022-08-01T13:36:37.982Z,39.33
2022-08-01T13:39:25.510Z,39.91
2022-08-01T13:41:54.199Z,37.75
2022-08-01T13:44:22.346Z,36.96
2022-08-01T13:46:51.248Z,37.13
2022-08-01T13:49:20.176Z,39.17
2022-08-01T13:51:50.949Z,40.48
2022-08-01T13:54:20.389Z,40.58
2022-08-01T13:56:48.290Z,40.24
2022-08-01T13:59:16.141Z,40.16
2022-08-01T14:01:44.318Z,40.69
2022-08-01T14:04:12.275Z,40.63
2022-08-01T14:06:40.221Z,41.21
2022-08-01T14:09:18.191Z,41.31
2022-08-01T14:11:54.050Z,41.04
2022-08-01T14:14:22.011Z,41.18
2022-08-01T14:16:50.177Z,41.50
2022-08-01T14:19:19.299Z,41.71
2022-08-01T14:21:53.427Z,41.69
2022-08-01T14:24:21.320Z,41.43
2022-08-01T14:26:49.189Z,41.69
2022-08-01T14:29:18.458Z,41.70
2022-08-01T14:31:46.659Z,41.53
2022-08-01T14:34:15.029Z,41.81
2022-08-01T14:36:43.741Z,42.00
2022-08-01T14:39:14.935Z,41.42
2022-08-01T14:41:43.097Z,41.44
2022-08-01T14:44:13.439Z,41.20
2022-08-01T14:46:58.130Z,41.42
2022-08-01T14:49:26.790Z,41.38
2022-08-01T14:51:54.733Z,41.23
2022-08-01T14:54:26.767Z,41.41
2022-08-01T14:56:57.168Z,41.09
2022-08-01T14:59:25.293Z,40.71
2022-08-01T15:01:54.571Z,41.00
2022-08-01T15:04:22.584Z,40.71
2022-08-01T15:06:50.433Z,41.18
2022-08-01T15:09:18.338Z,41.29
2022-08-01T15:11:47.919Z,41.27
2022-08-01T15:14:33.044Z,41.72
2022-08-01T15:17:02.474Z,41.87
2022-08-01T15:19:30.383Z,42.23
2022-08-01T15:21:58.295Z,42.27
2022-08-01T15:24:29.433Z,41.98
2022-08-01T15:26:57.348Z,42.49
2022-08-01T15:29:25.260Z,43.10
2022-08-01T15:31:53.165Z,43.50
2022-08-01T15:34:22.417Z,43.82
2022-08-01T15:36:50.340Z,43.55
2022-08-01T15:39:18.705Z,43.50
2022-08-01T15:41:46.677Z,43.95
2022-08-01T15:44:14.781Z,43.98
2022-08-01T15:46:42.857Z,44.54
2022-08-01T15:49:11.778Z,44.54
2022-08-01T15:51:41.228Z,44.42
2022-08-01T15:54:14.490Z,44.68
2022-08-01T15:56:42.797Z,44.52
2022-08-01T15:59:10.740Z,44.63
2022-08-01T16:01:38.840Z,44.23
2022-08-01T16:04:07.554Z,44.22
2022-08-01T16:06:36.667Z,44.80
2022-08-01T16:09:06.569Z,44.79
2022-08-01T16:11:37.445Z,44.84
2022-08-01T16:14:07.887Z,45.63
2022-08-01T16:16:35.903Z,45.96
2022-08-01T16:19:05.237Z,45.86
2022-08-01T16:21:33.363Z,45.58
2022-08-01T16:24:01.267Z,45.96
2022-08-01T16:26:30.548Z,45.70
2022-08-01T16:28:58.441Z,45.56
2022-08-01T16:31:37.561Z,45.37
2022-08-01T16:34:15.221Z,45.73
2022-08-01T16:36:43.407Z,46.23
2022-08-01T16:39:11.483Z,46.17
2022-08-01T16:41:40.779Z,46.33
2022-08-01T16:44:08.694Z,46.49
2022-08-01T16:46:36.620Z,46.38
2022-08-01T16:49:06.628Z,45.91
2022-08-01T16:51:40.736Z,44.95
2022-08-01T16:54:25.323Z,43.31
2022-08-01T16:57:08.080Z,41.78
2022-08-01T16:59:41.727Z,42.47
2022-08-01T17:02:11.146Z,43.56
2022-08-01T17:04:39.148Z,42.93
2022-08-01T17:07:07.334Z,41.74
2022-08-01T17:09:38.656Z,40.63
2022-08-01T17:12:14.376Z,41.00
2022-08-01T17:14:50.503Z,40.62
2022-08-01T17:17:18.421Z,40.98
2022-08-01T17:19:46.520Z,40.02
2022-08-01T17:22:14.440Z,39.77
2022-08-01T17:24:42.352Z,40.08
2022-08-01T17:27:13.024Z,39.51
2022-08-01T17:29:44.034Z,39.98
2022-08-01T17:32:13.236Z,39.67
2022-08-01T17:34:41.316Z,39.47
2022-08-01T17:37:09.828Z,39.69
2022-08-01T17:39:38.771Z,39.13
2022-08-01T17:42:08.287Z,39.95
2022-08-01T17:44:36.279Z,39.98
2022-08-01T17:47:07.553Z,39.64
2022-08-01T17:52:26.174Z,40.06
2022-08-01T17:54:58.112Z,40.54
2022-08-01T17:57:26.504Z,40.33
2022-08-01T17:59:54.443Z,40.85
2022-08-01T18:02:23.708Z,40.41
2022-08-01T18:04:52.919Z,40.42
2022-08-01T18:08:01.934Z,41.01
2022-08-01T18:10:11.527Z,41.57
2022-08-01T18:12:40.133Z,41.72
2022-08-01T18:15:08.880Z,42.02
2022-08-01T18:17:38.283Z,43.25
2022-08-01T18:20:07.479Z,43.25
2022-08-01T18:22:35.384Z,44.58
2022-08-01T18:25:08.787Z,44.69
2022-08-01T18:28:23.491Z,45.18
2022-08-01T18:30:25.295Z,46.02
2022-08-01T18:32:55.955Z,46.76
2022-08-01T18:35:25.650Z,46.77
2022-08-01T18:38:12.555Z,47.04
2022-08-01T18:40:41.665Z,47.15
2022-08-01T18:43:09.550Z,47.00
2022-08-01T18:45:42.270Z,47.11
2022-08-01T18:48:12.429Z,47.33
2022-08-01T18:50:40.634Z,47.84
2022-08-01T18:53:08.622Z,48.47
2022-08-01T18:55:36.561Z,48.33
2022-08-01T18:58:04.639Z,48.53
2022-08-01T19:00:32.781Z,48.54
2022-08-01T19:03:00.685Z,49.49
2022-08-01T19:05:31.794Z,48.84
2022-08-01T19:08:05.913Z,49.73
2022-08-01T19:10:35.092Z,49.38
2022-08-01T19:13:03.147Z,49.83
2022-08-01T19:15:31.401Z,49.40
2022-08-01T19:17:59.323Z,49.66
2022-08-01T19:20:27.631Z,49.29
2022-08-01T19:22:57.368Z,48.74
2022-08-01T19:25:25.417Z,48.92
2022-08-01T19:27:55.666Z,49.35
2022-08-01T19:30:23.806Z,48.46
2022-08-01T19:32:52.049Z,48.59
2022-08-01T19:35:20.518Z,49.05
2022-08-01T19:37:52.500Z,49.12
2022-08-01T19:40:26.372Z,48.84
2022-08-01T19:42:56.189Z,49.41
2022-08-01T19:45:24.659Z,48.90
2022-08-01T19:47:56.828Z,48.78
2022-08-01T19:50:26.325Z,48.66
2022-08-01T19:52:55.458Z,49.07
2022-08-01T19:55:25.025Z,49.00
2022-08-01T19:58:17.378Z,49.49
2022-08-01T20:00:43.768Z,49.69
2022-08-01T20:03:16.093Z,49.73
2022-08-01T20:05:45.039Z,50.13
2022-08-01T20:08:13.604Z,50.25
2022-08-01T20:10:43.022Z,50.68
2022-08-01T20:13:12.009Z,50.43
2022-08-01T20:15:40.183Z,50.47
2022-08-01T20:18:08.125Z,50.86
2022-08-01T20:20:37.901Z,50.62
2022-08-01T20:23:18.387Z,50.55
2022-08-01T20:25:53.251Z,50.70
2022-08-01T20:28:27.138Z,50.72
2022-08-01T20:31:01.095Z,50.96
2022-08-01T20:33:32.100Z,51.58
2022-08-01T20:36:02.213Z,51.37
2022-08-01T20:38:31.702Z,51.31
2022-08-01T20:41:04.271Z,51.52
2022-08-01T20:43:32.413Z,51.95
2022-08-01T20:46:00.678Z,52.01
2022-08-01T20:48:29.604Z,52.29
2022-08-01T20:51:16.560Z,52.42
2022-08-01T20:53:49.012Z,52.49
2022-08-01T20:56:26.894Z,52.53
2022-08-01T20:59:04.407Z,52.13
2022-08-01T21:01:39.993Z,52.84
2022-08-01T21:04:19.327Z,53.16
2022-08-01T21:06:54.102Z,52.88
2022-08-01T21:09:25.047Z,52.96
2022-08-01T21:12:03.253Z,53.17
2022-08-01T21:14:47.392Z,53.04
2022-08-01T21:17:19.690Z,53.80
2022-08-01T21:19:55.575Z,53.35
2022-08-01T21:22:34.091Z,53.50
2022-08-01T21:25:07.017Z,53.91
2022-08-01T21:27:37.440Z,53.86
2022-08-01T21:30:08.385Z,53.82
2022-08-01T21:32:37.558Z,54.08
2022-08-01T21:35:15.985Z,54.21
2022-08-01T21:37:52.126Z,54.40
2022-08-01T21:40:21.981Z,54.32
2022-08-01T21:42:53.134Z,54.97
2022-08-01T21:45:23.160Z,55.30
2022-08-01T21:47:52.141Z,55.59
2022-08-01T21:50:20.162Z,55.53
2022-08-01T21:52:50.809Z,55.56
2022-08-01T21:55:35.112Z,56.11
2022-08-01T21:58:17.078Z,56.27
2022-08-01T22:00:51.008Z,55.92
2022-08-01T22:03:24.769Z,56.11
2022-08-01T22:05:55.073Z,56.35
2022-08-01T22:08:29.818Z,56.38
2022-08-01T22:11:04.296Z,56.50
2022-08-01T22:13:34.608Z,56.45
2022-08-01T22:16:04.215Z,56.32
2022-08-01T22:18:34.027Z,56.77
2022-08-01T22:21:03.421Z,57.15
2022-08-01T22:23:35.752Z,57.61
2022-08-01T22:26:08.326Z,57.56
2022-08-01T22:28:39.064Z,57.82
2022-08-01T22:31:07.845Z,58.41
2022-08-01T22:33:37.216Z,59.31
2022-08-01T22:36:06.392Z,59.11
2022-08-01T22:38:35.256Z,59.10
2022-08-01T22:41:05.829Z,59.14
2022-08-01T22:43:46.784Z,59.25
2022-08-01T22:46:26.233Z,59.57
2022-08-01T22:49:00.661Z,59.90
2022-08-01T22:51:35.680Z,60.58
2022-08-01T22:54:06.391Z,60.36
2022-08-01T22:56:39.152Z,60.76
2022-08-01T22:59:14.820Z,61.26
2022-08-01T23:01:47.895Z,61.44
2022-08-01T23:04:28.794Z,61.95
2022-08-01T23:07:05.416Z,62.87
2022-08-01T23:09:48.187Z,63.02
2022-08-01T23:12:25.320Z,63.29
2022-08-01T23:14:56.632Z,64.44
2022-08-01T23:17:28.150Z,66.42
2022-08-01T23:19:58.458Z,68.05
2022-08-01T23:22:31.370Z,68.93
2022-08-01T23:25:05.057Z,70.85
2022-08-01T23:27:51.689Z,71.86
2022-08-01T23:30:25.988Z,73.20
2022-08-01T23:32:53.905Z,73.66
2022-08-01T23:35:22.000Z,73.49
2022-08-01T23:37:51.194Z,72.97
2022-08-01T23:40:19.608Z,73.56
2022-08-01T23:42:47.640Z,74.03
2022-08-01T23:45:15.700Z,74.52
2022-08-01T23:47:44.941Z,74.95
2022-08-01T23:50:12.851Z,75.71
2022-08-01T23:52:48.242Z,76.42
2022-08-01T23:55:17.871Z,77.02
2022-08-01T23:57:45.815Z,78.85
